Impacts METAR Board
IDs:

KDFW - Dallas-Ft Worth Intl, TX, US

Updated at: 0600 UTC 24 Jan 2019
Potential Impact None Slight Moderate High
Time 23/18Z 23/19Z 23/20Z 23/21Z 23/22Z 23/23Z 24/00Z 24/01Z 24/02Z 24/03Z 24/04Z 24/05Z 24/06Z
Temp37 40 44 48 48 47 44 44 42 40 35 33 32
Dewpt19 19 19 19 20 20 20 20 21 20 21 22 22
Altim30.16 30.12 30.08 30.06 30.06 30.07 30.08 30.09 30.10 30.09 30.08 30.07 30.05
VIS10 10 10 10 10 10 10 10 10 10 10 10 10
CIG-- -- -- -- -- -- -- -- -- -- -- -- --
CoverFEWFEWFEWFEWCLRCLRCLRFEWCLRCLRCLRCLRCLR
FltCatVFRVFRVFRVFRVFRVFRVFRVFRVFRVFRVFRVFRVFR
WX--------------------------
WDir3203103203403303403303103000210170190
WSpd14 15 15 19 13 12 7 7 6 0 5 4 6
WGst-- -- 23 23 -- -- -- -- -- -- -- -- --
Raw hourly METARs
KDFW 231753Z 32014KT 10SM FEW250 03/M07 A3016 RMK AO2 SLP216 T00281072 10028 21028 58001
KDFW 231853Z 31015KT 10SM FEW150 FEW250 04/M07 A3012 RMK AO2 PK WND 30026/1836 SLP202 T00441072
KDFW 231953Z 32015G23KT 10SM FEW150 07/M07 A3008 RMK AO2 SLP186 T00671072
KDFW 232053Z 34019G23KT 10SM FEW150 09/M07 A3006 RMK AO2 SLP180 T00891072 56034
KDFW 232153Z 33013KT 10SM CLR 09/M07 A3006 RMK AO2 SLP180 T00891067
KDFW 232253Z 34012KT 10SM CLR 08/M07 A3007 RMK AO2 SLP183 T00831067
KDFW 232353Z 33007KT 10SM CLR 07/M07 A3008 RMK AO2 SLP188 T00671067 10089 20028 53006
KDFW 240053Z 31007KT 10SM FEW250 07/M07 A3009 RMK AO2 SLP191 T00671067
KDFW 240153Z 30006KT 10SM CLR 06/M06 A3010 RMK AO2 SLP194 T00561061
KDFW 240253Z 00000KT 10SM CLR 04/M07 A3009 RMK AO2 SLP191 T00441067 50002
KDFW 240353Z 21005KT 10SM CLR 02/M06 A3008 RMK AO2 SLP190 T00171061
KDFW 240453Z 17004KT 10SM CLR 01/M06 A3007 RMK AO2 SLP186 T00061056
KDFW 240553Z 19006KT 10SM CLR 00/M06 A3005 RMK AO2 SLP179 T00001056 10067 20000 400891028 58012



Page loaded:  06:42 UTC  |   10:42 PM Pacific  |   11:42 PM Mountain  |   12:42 AM Central  |   01:42 AM Eastern

 

ADVISORIES

FORECASTS

FORECASTS

OBSERVATIONS

USER TOOLS

ABOUT US